Airfield :
LOGIN :

Register | Disclaimer

   EN    FR    IT 

 










Legend :    VFR   Marginal VFR   IFR   Intensive IFR   Very Intensive IFR
Visi :
Ceiling :
>= 8 km
>= 3000ft
5 to 8 km
1000 to 3000 ft
1500m to 5 km
500 to 1000 ft
800 to 1500m
200 to 500 ft
< 800m
< 200 ft
Symbols :   Thunderstorms  Fog  Heavy snow  Heavy precipitations  Wind > 20 kt
SIGMETs :     Misc.  Thunderstorms  Icing  Turbulence  Mountain Waves  Volcanic Ashes






- Airport Elevation : 39 ft
- IATA code : ANR


EBAW - Anvers / Antwerpen Deurne

CURRENT METAR :
  • 060020Z AUTO 36004KT 330V030 8000 // VV/// 03/02 Q1043

EXPIRED METARs :
  • 052320Z AUTO 35004KT 330V030 9000 // VV/// 04/02 Q1043
  • 052250Z AUTO 01004KT 340V040 9000 // VV/// 03/02 Q1043
  • 052220Z AUTO 03004KT 9999 // VV/// 04/02 Q1043

TAF TAF EBAW
Valid from the 06 at 00:00 until the 06 at 09:00 UTC


052310Z 0600/0609 01003KT 8000 NSC
BECMG 0604/0606 2500 MIFG BR BKN003
PROB40
TEMPO 0606/0609 0700 BCFG BKN002
PROB30
TEMPO 0606/0609 0200 FG BKN001



MET'MAP, your aeronautical weather chart ! - Copyright ORBIFLY December 2007 - Disclaimer

ORBIFLY MET'MAP TEAM :

Programming & Development : Alexandra Zaïnal
Original concept : Baudouin d'Aumeries
Technical & hardware support : Manuel Goepfert
Assistance : Marc-Olivier Méhu




SOURCES & CREDITS :

   NOAA